sensor_id;sensor_type;location;lat;lon;timestamp;P1;durP1;ratioP1;P2;durP2;ratioP2
76447;SDS011;65284;51.040;13.722;2022-12-31T00:00:04;0.90;;;0.50;;
76447;SDS011;65284;51.040;13.722;2022-12-31T00:02:32;1.40;;;0.75;;
76447;SDS011;65284;51.040;13.722;2022-12-31T00:04:59;2.40;;;0.73;;
76447;SDS011;65284;51.040;13.722;2022-12-31T00:07:25;2.35;;;1.30;;
76447;SDS011;65284;51.040;13.722;2022-12-31T00:09:52;2.15;;;1.00;;
76447;SDS011;65284;51.040;13.722;2022-12-31T00:12:18;2.05;;;0.90;;
76447;SDS011;65284;51.040;13.722;2022-12-31T00:14:45;1.98;;;0.80;;
76447;SDS011;65284;51.040;13.722;2022-12-31T00:17:11;3.22;;;1.05;;
76447;SDS011;65284;51.040;13.722;2022-12-31T00:19:38;3.90;;;1.25;;
76447;SDS011;65284;51.040;13.722;2022-12-31T00:22:05;3.60;;;1.40;;
76447;SDS011;65284;51.040;13.722;2022-12-31T00:24:32;2.78;;;1.20;;
76447;SDS011;65284;51.040;13.722;2022-12-31T00:27:00;4.53;;;1.65;;
76447;SDS011;65284;51.040;13.722;2022-12-31T00:29:27;2.78;;;1.40;;
76447;SDS011;65284;51.040;13.722;2022-12-31T00:31:53;3.22;;;1.38;;
76447;SDS011;65284;51.040;13.722;2022-12-31T00:34:20;2.67;;;1.20;;
76447;SDS011;65284;51.040;13.722;2022-12-31T00:36:46;2.72;;;1.40;;
76447;SDS011;65284;51.040;13.722;2022-12-31T00:39:13;3.72;;;1.50;;
76447;SDS011;65284;51.040;13.722;2022-12-31T00:41:39;3.10;;;1.50;;
76447;SDS011;65284;51.040;13.722;2022-12-31T00:44:09;4.63;;;1.63;;
76447;SDS011;65284;51.040;13.722;2022-12-31T00:46:36;3.78;;;1.70;;
76447;SDS011;65284;51.040;13.722;2022-12-31T00:49:02;3.47;;;1.50;;
76447;SDS011;65284;51.040;13.722;2022-12-31T00:51:28;4.25;;;1.60;;
76447;SDS011;65284;51.040;13.722;2022-12-31T00:53:55;3.67;;;1.70;;
76447;SDS011;65284;51.040;13.722;2022-12-31T00:56:23;4.07;;;1.90;;
76447;SDS011;65284;51.040;13.722;2022-12-31T00:58:51;6.65;;;2.40;;
76447;SDS011;65284;51.040;13.722;2022-12-31T01:01:22;4.53;;;1.80;;
76447;SDS011;65284;51.040;13.722;2022-12-31T01:03:52;3.63;;;1.60;;
76447;SDS011;65284;51.040;13.722;2022-12-31T01:06:21;4.45;;;1.73;;
76447;SDS011;65284;51.040;13.722;2022-12-31T01:08:48;3.42;;;1.65;;
76447;SDS011;65284;51.040;13.722;2022-12-31T01:11:15;3.80;;;1.77;;
76447;SDS011;65284;51.040;13.722;2022-12-31T01:13:50;5.28;;;1.73;;
76447;SDS011;65284;51.040;13.722;2022-12-31T01:16:26;3.60;;;1.65;;
76447;SDS011;65284;51.040;13.722;2022-12-31T01:18:56;3.85;;;1.70;;
76447;SDS011;65284;51.040;13.722;2022-12-31T01:21:27;7.40;;;4.63;;
76447;SDS011;65284;51.040;13.722;2022-12-31T01:23:54;8.63;;;5.90;;
76447;SDS011;65284;51.040;13.722;2022-12-31T01:26:21;3.58;;;1.90;;
76447;SDS011;65284;51.040;13.722;2022-12-31T01:28:47;4.47;;;2.40;;
76447;SDS011;65284;51.040;13.722;2022-12-31T01:31:14;8.10;;;3.65;;
76447;SDS011;65284;51.040;13.722;2022-12-31T01:33:43;10.02;;;5.30;;
76447;SDS011;65284;51.040;13.722;2022-12-31T01:38:48;4.10;;;1.73;;
76447;SDS011;65284;51.040;13.722;2022-12-31T01:41:16;4.53;;;1.77;;
76447;SDS011;65284;51.040;13.722;2022-12-31T01:43:47;4.15;;;2.00;;
76447;SDS011;65284;51.040;13.722;2022-12-31T01:46:32;3.80;;;2.10;;
76447;SDS011;65284;51.040;13.722;2022-12-31T01:49:05;3.22;;;1.77;;
76447;SDS011;65284;51.040;13.722;2022-12-31T01:51:38;4.75;;;1.77;;
76447;SDS011;65284;51.040;13.722;2022-12-31T01:54:08;9.20;;;3.17;;
76447;SDS011;65284;51.040;13.722;2022-12-31T01:56:38;4.07;;;1.95;;
76447;SDS011;65284;51.040;13.722;2022-12-31T01:59:08;8.23;;;2.05;;
76447;SDS011;65284;51.040;13.722;2022-12-31T02:01:36;3.63;;;1.80;;
76447;SDS011;65284;51.040;13.722;2022-12-31T02:04:05;4.57;;;2.20;;
76447;SDS011;65284;51.040;13.722;2022-12-31T02:06:36;3.83;;;2.00;;
76447;SDS011;65284;51.040;13.722;2022-12-31T02:09:06;4.13;;;1.98;;
76447;SDS011;65284;51.040;13.722;2022-12-31T02:11:33;3.95;;;1.98;;
76447;SDS011;65284;51.040;13.722;2022-12-31T02:14:03;4.32;;;1.75;;
76447;SDS011;65284;51.040;13.722;2022-12-31T02:16:52;3.35;;;1.70;;
76447;SDS011;65284;51.040;13.722;2022-12-31T02:28:11;3.78;;;1.83;;
76447;SDS011;65284;51.040;13.722;2022-12-31T02:30:52;3.45;;;1.90;;
76447;SDS011;65284;51.040;13.722;2022-12-31T02:33:58;3.95;;;2.20;;
76447;SDS011;65284;51.040;13.722;2022-12-31T02:36:29;3.20;;;1.88;;
76447;SDS011;65284;51.040;13.722;2022-12-31T02:39:00;4.93;;;2.17;;
76447;SDS011;65284;51.040;13.722;2022-12-31T02:41:29;2.28;;;1.00;;
76447;SDS011;65284;51.040;13.722;2022-12-31T02:44:21;2.92;;;1.50;;
76447;SDS011;65284;51.040;13.722;2022-12-31T02:52:27;2.65;;;0.70;;
76447;SDS011;65284;51.040;13.722;2022-12-31T02:57:39;0.80;;;0.10;;
76447;SDS011;65284;51.040;13.722;2022-12-31T03:00:13;0.40;;;0.10;;
76447;SDS011;65284;51.040;13.722;2022-12-31T03:05:29;0.50;;;0.20;;
76447;SDS011;65284;51.040;13.722;2022-12-31T03:07:59;0.38;;;0.17;;
76447;SDS011;65284;51.040;13.722;2022-12-31T03:10:26;0.25;;;0.10;;
76447;SDS011;65284;51.040;13.722;2022-12-31T03:12:52;0.40;;;0.20;;
76447;SDS011;65284;51.040;13.722;2022-12-31T03:15:20;0.70;;;0.20;;
76447;SDS011;65284;51.040;13.722;2022-12-31T03:20:35;0.25;;;0.10;;
76447;SDS011;65284;51.040;13.722;2022-12-31T03:23:23;0.55;;;0.20;;
76447;SDS011;65284;51.040;13.722;2022-12-31T03:25:51;0.20;;;0.10;;
76447;SDS011;65284;51.040;13.722;2022-12-31T03:28:19;0.20;;;0.00;;
76447;SDS011;65284;51.040;13.722;2022-12-31T03:30:48;0.10;;;0.10;;
76447;SDS011;65284;51.040;13.722;2022-12-31T03:33:18;0.82;;;0.10;;
76447;SDS011;65284;51.040;13.722;2022-12-31T03:35:46;0.30;;;0.10;;
76447;SDS011;65284;51.040;13.722;2022-12-31T03:38:14;0.20;;;0.10;;
76447;SDS011;65284;51.040;13.722;2022-12-31T03:40:42;0.20;;;0.10;;
76447;SDS011;65284;51.040;13.722;2022-12-31T03:43:12;0.25;;;0.10;;
76447;SDS011;65284;51.040;13.722;2022-12-31T03:45:39;0.75;;;0.20;;
76447;SDS011;65284;51.040;13.722;2022-12-31T03:48:07;0.35;;;0.10;;
76447;SDS011;65284;51.040;13.722;2022-12-31T03:50:34;0.20;;;0.10;;
76447;SDS011;65284;51.040;13.722;2022-12-31T03:53:01;0.15;;;0.10;;
76447;SDS011;65284;51.040;13.722;2022-12-31T03:55:28;0.17;;;0.10;;
76447;SDS011;65284;51.040;13.722;2022-12-31T03:57:54;0.20;;;0.10;;
76447;SDS011;65284;51.040;13.722;2022-12-31T04:00:20;0.10;;;0.03;;
76447;SDS011;65284;51.040;13.722;2022-12-31T04:02:47;0.35;;;0.10;;
76447;SDS011;65284;51.040;13.722;2022-12-31T04:05:15;0.20;;;0.10;;
76447;SDS011;65284;51.040;13.722;2022-12-31T04:07:42;0.43;;;0.10;;
76447;SDS011;65284;51.040;13.722;2022-12-31T04:10:09;0.60;;;0.10;;
76447;SDS011;65284;51.040;13.722;2022-12-31T04:12:37;0.20;;;0.10;;
76447;SDS011;65284;51.040;13.722;2022-12-31T04:15:05;0.20;;;0.10;;
76447;SDS011;65284;51.040;13.722;2022-12-31T04:17:32;0.30;;;0.10;;
76447;SDS011;65284;51.040;13.722;2022-12-31T04:19:59;1.95;;;0.13;;
76447;SDS011;65284;51.040;13.722;2022-12-31T04:22:25;1.38;;;0.10;;
76447;SDS011;65284;51.040;13.722;2022-12-31T04:24:52;0.13;;;0.10;;
76447;SDS011;65284;51.040;13.722;2022-12-31T04:27:18;0.10;;;0.10;;
76447;SDS011;65284;51.040;13.722;2022-12-31T04:29:44;0.20;;;0.10;;
76447;SDS011;65284;51.040;13.722;2022-12-31T04:32:11;0.10;;;0.10;;
76447;SDS011;65284;51.040;13.722;2022-12-31T04:34:37;0.47;;;0.10;;
76447;SDS011;65284;51.040;13.722;2022-12-31T04:37:04;0.10;;;0.10;;
76447;SDS011;65284;51.040;13.722;2022-12-31T04:39:30;0.43;;;0.17;;
76447;SDS011;65284;51.040;13.722;2022-12-31T04:41:57;0.43;;;0.10;;
76447;SDS011;65284;51.040;13.722;2022-12-31T04:44:23;0.10;;;0.10;;
76447;SDS011;65284;51.040;13.722;2022-12-31T04:46:50;0.20;;;0.10;;
76447;SDS011;65284;51.040;13.722;2022-12-31T04:49:16;0.30;;;0.10;;
76447;SDS011;65284;51.040;13.722;2022-12-31T04:51:43;0.20;;;0.10;;
76447;SDS011;65284;51.040;13.722;2022-12-31T04:54:09;0.43;;;0.10;;
76447;SDS011;65284;51.040;13.722;2022-12-31T04:56:35;0.20;;;0.00;;
76447;SDS011;65284;51.040;13.722;2022-12-31T04:59:03;0.17;;;0.08;;
76447;SDS011;65284;51.040;13.722;2022-12-31T05:01:30;0.10;;;0.10;;
76447;SDS011;65284;51.040;13.722;2022-12-31T05:03:56;0.22;;;0.10;;
76447;SDS011;65284;51.040;13.722;2022-12-31T05:06:23;0.00;;;0.00;;
76447;SDS011;65284;51.040;13.722;2022-12-31T05:08:50;0.10;;;0.10;;
76447;SDS011;65284;51.040;13.722;2022-12-31T05:11:16;0.45;;;0.10;;
76447;SDS011;65284;51.040;13.722;2022-12-31T05:13:43;0.73;;;0.10;;
76447;SDS011;65284;51.040;13.722;2022-12-31T05:16:10;0.20;;;0.05;;
76447;SDS011;65284;51.040;13.722;2022-12-31T05:18:36;0.20;;;0.10;;
76447;SDS011;65284;51.040;13.722;2022-12-31T05:21:03;1.13;;;0.15;;
76447;SDS011;65284;51.040;13.722;2022-12-31T05:23:30;0.10;;;0.10;;
76447;SDS011;65284;51.040;13.722;2022-12-31T05:25:56;0.08;;;0.00;;
76447;SDS011;65284;51.040;13.722;2022-12-31T05:28:24;0.20;;;0.05;;
76447;SDS011;65284;51.040;13.722;2022-12-31T05:30:51;0.15;;;0.10;;
76447;SDS011;65284;51.040;13.722;2022-12-31T05:33:18;1.13;;;0.10;;
76447;SDS011;65284;51.040;13.722;2022-12-31T05:35:45;0.32;;;0.08;;
76447;SDS011;65284;51.040;13.722;2022-12-31T05:38:11;0.00;;;0.00;;
76447;SDS011;65284;51.040;13.722;2022-12-31T05:40:37;0.22;;;0.10;;
76447;SDS011;65284;51.040;13.722;2022-12-31T05:43:04;0.10;;;0.05;;
76447;SDS011;65284;51.040;13.722;2022-12-31T05:45:30;0.22;;;0.10;;
76447;SDS011;65284;51.040;13.722;2022-12-31T05:47:57;0.63;;;0.10;;
76447;SDS011;65284;51.040;13.722;2022-12-31T05:50:24;0.13;;;0.10;;
76447;SDS011;65284;51.040;13.722;2022-12-31T05:52:50;0.10;;;0.10;;
76447;SDS011;65284;51.040;13.722;2022-12-31T05:55:17;0.10;;;0.10;;
76447;SDS011;65284;51.040;13.722;2022-12-31T05:57:43;0.30;;;0.10;;
76447;SDS011;65284;51.040;13.722;2022-12-31T06:00:10;0.22;;;0.05;;
76447;SDS011;65284;51.040;13.722;2022-12-31T06:02:37;0.98;;;0.10;;
76447;SDS011;65284;51.040;13.722;2022-12-31T06:05:04;0.30;;;0.10;;
76447;SDS011;65284;51.040;13.722;2022-12-31T06:07:30;0.30;;;0.00;;
76447;SDS011;65284;51.040;13.722;2022-12-31T06:09:57;0.35;;;0.10;;
76447;SDS011;65284;51.040;13.722;2022-12-31T06:12:23;0.10;;;0.03;;
76447;SDS011;65284;51.040;13.722;2022-12-31T06:14:50;0.30;;;0.00;;
76447;SDS011;65284;51.040;13.722;2022-12-31T06:17:16;0.15;;;0.00;;
76447;SDS011;65284;51.040;13.722;2022-12-31T06:19:44;0.65;;;0.10;;
76447;SDS011;65284;51.040;13.722;2022-12-31T06:22:11;0.17;;;0.10;;
76447;SDS011;65284;51.040;13.722;2022-12-31T06:24:38;0.43;;;0.10;;
76447;SDS011;65284;51.040;13.722;2022-12-31T06:27:04;0.73;;;0.10;;
76447;SDS011;65284;51.040;13.722;2022-12-31T06:29:31;0.77;;;0.20;;
76447;SDS011;65284;51.040;13.722;2022-12-31T06:31:57;0.30;;;0.10;;
76447;SDS011;65284;51.040;13.722;2022-12-31T06:34:23;0.68;;;0.10;;
76447;SDS011;65284;51.040;13.722;2022-12-31T06:36:50;0.10;;;0.05;;
76447;SDS011;65284;51.040;13.722;2022-12-31T06:39:16;0.40;;;0.10;;
76447;SDS011;65284;51.040;13.722;2022-12-31T06:41:43;0.20;;;0.10;;
76447;SDS011;65284;51.040;13.722;2022-12-31T06:44:09;0.28;;;0.10;;
76447;SDS011;65284;51.040;13.722;2022-12-31T06:46:35;0.43;;;0.20;;
76447;SDS011;65284;51.040;13.722;2022-12-31T06:49:02;0.30;;;0.20;;
76447;SDS011;65284;51.040;13.722;2022-12-31T06:51:28;1.35;;;0.30;;
76447;SDS011;65284;51.040;13.722;2022-12-31T06:53:55;0.98;;;0.30;;
76447;SDS011;65284;51.040;13.722;2022-12-31T06:56:22;2.38;;;0.40;;
76447;SDS011;65284;51.040;13.722;2022-12-31T06:58:58;0.50;;;0.28;;
76447;SDS011;65284;51.040;13.722;2022-12-31T07:06:58;1.05;;;0.20;;
76447;SDS011;65284;51.040;13.722;2022-12-31T07:09:44;1.67;;;0.40;;
76447;SDS011;65284;51.040;13.722;2022-12-31T07:12:28;1.17;;;0.30;;
76447;SDS011;65284;51.040;13.722;2022-12-31T07:15:08;1.58;;;0.32;;
76447;SDS011;65284;51.040;13.722;2022-12-31T07:20:28;1.38;;;0.30;;
76447;SDS011;65284;51.040;13.722;2022-12-31T07:22:55;0.73;;;0.30;;
76447;SDS011;65284;51.040;13.722;2022-12-31T07:25:21;0.85;;;0.30;;
76447;SDS011;65284;51.040;13.722;2022-12-31T07:33:17;0.70;;;0.30;;
76447;SDS011;65284;51.040;13.722;2022-12-31T07:35:54;0.50;;;0.30;;
76447;SDS011;65284;51.040;13.722;2022-12-31T07:38:33;14.52;;;7.13;;
76447;SDS011;65284;51.040;13.722;2022-12-31T07:46:54;0.63;;;0.30;;
76447;SDS011;65284;51.040;13.722;2022-12-31T07:49:28;0.90;;;0.30;;
76447;SDS011;65284;51.040;13.722;2022-12-31T07:51:56;1.48;;;0.28;;
76447;SDS011;65284;51.040;13.722;2022-12-31T07:54:23;4.25;;;0.50;;
76447;SDS011;65284;51.040;13.722;2022-12-31T07:56:49;0.55;;;0.30;;
76447;SDS011;65284;51.040;13.722;2022-12-31T07:59:30;1.17;;;0.32;;
76447;SDS011;65284;51.040;13.722;2022-12-31T08:02:11;2.22;;;0.90;;
76447;SDS011;65284;51.040;13.722;2022-12-31T08:04:50;3.35;;;0.63;;
76447;SDS011;65284;51.040;13.722;2022-12-31T08:07:36;0.68;;;0.30;;
76447;SDS011;65284;51.040;13.722;2022-12-31T08:10:16;0.68;;;0.30;;
76447;SDS011;65284;51.040;13.722;2022-12-31T08:12:45;0.80;;;0.30;;
76447;SDS011;65284;51.040;13.722;2022-12-31T08:15:16;0.98;;;0.30;;
76447;SDS011;65284;51.040;13.722;2022-12-31T08:17:44;0.88;;;0.40;;
76447;SDS011;65284;51.040;13.722;2022-12-31T08:20:11;1.13;;;0.30;;
76447;SDS011;65284;51.040;13.722;2022-12-31T08:22:43;3.90;;;2.60;;
76447;SDS011;65284;51.040;13.722;2022-12-31T08:31:21;2.38;;;1.13;;
76447;SDS011;65284;51.040;13.722;2022-12-31T08:34:04;5.53;;;2.70;;
76447;SDS011;65284;51.040;13.722;2022-12-31T08:36:48;0.57;;;0.38;;
76447;SDS011;65284;51.040;13.722;2022-12-31T08:39:41;0.40;;;0.30;;
76447;SDS011;65284;51.040;13.722;2022-12-31T08:51:02;1.33;;;0.40;;
76447;SDS011;65284;51.040;13.722;2022-12-31T08:53:28;0.90;;;0.40;;
76447;SDS011;65284;51.040;13.722;2022-12-31T08:56:04;0.63;;;0.30;;
76447;SDS011;65284;51.040;13.722;2022-12-31T08:59:11;3.85;;;0.40;;
76447;SDS011;65284;51.040;13.722;2022-12-31T09:01:53;1.50;;;0.47;;
76447;SDS011;65284;51.040;13.722;2022-12-31T09:04:51;1.20;;;0.30;;
76447;SDS011;65284;51.040;13.722;2022-12-31T09:07:31;1.20;;;0.32;;
76447;SDS011;65284;51.040;13.722;2022-12-31T09:18:17;1.02;;;0.38;;
76447;SDS011;65284;51.040;13.722;2022-12-31T09:20:43;1.70;;;0.38;;
76447;SDS011;65284;51.040;13.722;2022-12-31T09:23:11;1.40;;;0.40;;
76447;SDS011;65284;51.040;13.722;2022-12-31T09:31:26;4.35;;;1.30;;
76447;SDS011;65284;51.040;13.722;2022-12-31T09:34:11;0.98;;;0.30;;
76447;SDS011;65284;51.040;13.722;2022-12-31T09:36:40;2.58;;;0.45;;
76447;SDS011;65284;51.040;13.722;2022-12-31T09:39:22;1.17;;;0.40;;
76447;SDS011;65284;51.040;13.722;2022-12-31T09:51:14;0.88;;;0.40;;
76447;SDS011;65284;51.040;13.722;2022-12-31T09:56:44;1.23;;;0.50;;
76447;SDS011;65284;51.040;13.722;2022-12-31T10:02:45;1.90;;;0.30;;
76447;SDS011;65284;51.040;13.722;2022-12-31T10:08:27;0.70;;;0.30;;
76447;SDS011;65284;51.040;13.722;2022-12-31T10:20:05;0.65;;;0.30;;
76447;SDS011;65284;51.040;13.722;2022-12-31T10:22:48;0.88;;;0.30;;
76447;SDS011;65284;51.040;13.722;2022-12-31T10:25:37;0.63;;;0.40;;
76447;SDS011;65284;51.040;13.722;2022-12-31T10:31:02;1.92;;;0.65;;
76447;SDS011;65284;51.040;13.722;2022-12-31T10:42:02;1.42;;;0.40;;
76447;SDS011;65284;51.040;13.722;2022-12-31T10:50:27;0.80;;;0.40;;
76447;SDS011;65284;51.040;13.722;2022-12-31T10:55:40;1.05;;;0.40;;
76447;SDS011;65284;51.040;13.722;2022-12-31T10:59:00;2.00;;;0.45;;
76447;SDS011;65284;51.040;13.722;2022-12-31T11:07:08;4.78;;;2.00;;
76447;SDS011;65284;51.040;13.722;2022-12-31T11:15:36;1.40;;;0.30;;
76447;SDS011;65284;51.040;13.722;2022-12-31T11:18:28;0.88;;;0.40;;
76447;SDS011;65284;51.040;13.722;2022-12-31T11:21:15;1.75;;;0.55;;
76447;SDS011;65284;51.040;13.722;2022-12-31T11:23:56;1.95;;;0.35;;
76447;SDS011;65284;51.040;13.722;2022-12-31T11:26:30;1.80;;;0.50;;
76447;SDS011;65284;51.040;13.722;2022-12-31T11:29:22;2.53;;;0.52;;
76447;SDS011;65284;51.040;13.722;2022-12-31T11:34:55;1.27;;;0.45;;
76447;SDS011;65284;51.040;13.722;2022-12-31T11:43:43;1.67;;;0.50;;
76447;SDS011;65284;51.040;13.722;2022-12-31T11:57:34;2.92;;;0.75;;
76447;SDS011;65284;51.040;13.722;2022-12-31T12:05:08;3.38;;;0.60;;
76447;SDS011;65284;51.040;13.722;2022-12-31T12:07:38;1.55;;;0.50;;
76447;SDS011;65284;51.040;13.722;2022-12-31T12:10:14;2.65;;;0.70;;
76447;SDS011;65284;51.040;13.722;2022-12-31T12:12:46;1.50;;;0.70;;
76447;SDS011;65284;51.040;13.722;2022-12-31T12:15:16;1.92;;;0.60;;
76447;SDS011;65284;51.040;13.722;2022-12-31T12:17:51;1.90;;;0.57;;
76447;SDS011;65284;51.040;13.722;2022-12-31T12:20:31;2.05;;;0.50;;
76447;SDS011;65284;51.040;13.722;2022-12-31T12:23:11;2.92;;;0.68;;
76447;SDS011;65284;51.040;13.722;2022-12-31T12:25:40;0.70;;;0.40;;
76447;SDS011;65284;51.040;13.722;2022-12-31T12:30:45;1.30;;;0.40;;
76447;SDS011;65284;51.040;13.722;2022-12-31T12:33:18;1.48;;;0.50;;
76447;SDS011;65284;51.040;13.722;2022-12-31T12:35:45;1.45;;;0.63;;
76447;SDS011;65284;51.040;13.722;2022-12-31T12:38:16;1.13;;;0.38;;
76447;SDS011;65284;51.040;13.722;2022-12-31T12:40:53;1.27;;;0.50;;
76447;SDS011;65284;51.040;13.722;2022-12-31T12:43:29;1.65;;;0.50;;
76447;SDS011;65284;51.040;13.722;2022-12-31T12:45:59;1.60;;;0.60;;
76447;SDS011;65284;51.040;13.722;2022-12-31T12:48:33;0.90;;;0.55;;
76447;SDS011;65284;51.040;13.722;2022-12-31T12:51:05;1.90;;;0.70;;
76447;SDS011;65284;51.040;13.722;2022-12-31T12:56:29;0.88;;;0.50;;
76447;SDS011;65284;51.040;13.722;2022-12-31T13:05:04;1.48;;;0.47;;
76447;SDS011;65284;51.040;13.722;2022-12-31T13:07:50;1.55;;;0.60;;
76447;SDS011;65284;51.040;13.722;2022-12-31T13:10:55;1.75;;;0.60;;
76447;SDS011;65284;51.040;13.722;2022-12-31T13:13:46;1.65;;;0.50;;
76447;SDS011;65284;51.040;13.722;2022-12-31T13:19:08;0.90;;;0.40;;
76447;SDS011;65284;51.040;13.722;2022-12-31T13:21:52;5.55;;;2.40;;
76447;SDS011;65284;51.040;13.722;2022-12-31T13:24:50;1.40;;;0.50;;
76447;SDS011;65284;51.040;13.722;2022-12-31T13:27:24;1.15;;;0.55;;
76447;SDS011;65284;51.040;13.722;2022-12-31T13:29:58;1.10;;;0.60;;
76447;SDS011;65284;51.040;13.722;2022-12-31T13:32:31;1.55;;;0.65;;
76447;SDS011;65284;51.040;13.722;2022-12-31T13:35:14;1.40;;;0.60;;
76447;SDS011;65284;51.040;13.722;2022-12-31T13:37:46;1.98;;;0.57;;
76447;SDS011;65284;51.040;13.722;2022-12-31T13:40:18;2.70;;;0.68;;
76447;SDS011;65284;51.040;13.722;2022-12-31T13:42:56;1.08;;;0.57;;
76447;SDS011;65284;51.040;13.722;2022-12-31T13:45:32;2.70;;;0.80;;
76447;SDS011;65284;51.040;13.722;2022-12-31T13:48:15;1.73;;;0.75;;
76447;SDS011;65284;51.040;13.722;2022-12-31T13:51:02;2.17;;;0.60;;
76447;SDS011;65284;51.040;13.722;2022-12-31T13:56:51;1.52;;;0.73;;
76447;SDS011;65284;51.040;13.722;2022-12-31T13:59:21;1.77;;;0.70;;
76447;SDS011;65284;51.040;13.722;2022-12-31T14:01:54;1.50;;;0.63;;
76447;SDS011;65284;51.040;13.722;2022-12-31T14:04:29;1.75;;;0.50;;
76447;SDS011;65284;51.040;13.722;2022-12-31T14:09:41;1.23;;;0.60;;
76447;SDS011;65284;51.040;13.722;2022-12-31T14:15:21;2.65;;;0.60;;
76447;SDS011;65284;51.040;13.722;2022-12-31T14:20:38;1.73;;;0.50;;
76447;SDS011;65284;51.040;13.722;2022-12-31T14:28:46;1.80;;;0.60;;
76447;SDS011;65284;51.040;13.722;2022-12-31T14:37:29;2.80;;;0.60;;
76447;SDS011;65284;51.040;13.722;2022-12-31T14:40:28;2.00;;;0.70;;
76447;SDS011;65284;51.040;13.722;2022-12-31T14:43:29;2.28;;;0.70;;
76447;SDS011;65284;51.040;13.722;2022-12-31T14:46:18;2.33;;;1.05;;
76447;SDS011;65284;51.040;13.722;2022-12-31T14:49:20;2.50;;;1.00;;
76447;SDS011;65284;51.040;13.722;2022-12-31T14:52:34;2.63;;;0.90;;
76447;SDS011;65284;51.040;13.722;2022-12-31T14:57:40;3.83;;;0.80;;
76447;SDS011;65284;51.040;13.722;2022-12-31T15:17:56;1.65;;;0.70;;
76447;SDS011;65284;51.040;13.722;2022-12-31T15:20:39;1.88;;;0.77;;
76447;SDS011;65284;51.040;13.722;2022-12-31T15:23:12;1.67;;;0.68;;
76447;SDS011;65284;51.040;13.722;2022-12-31T15:25:46;2.35;;;0.85;;
76447;SDS011;65284;51.040;13.722;2022-12-31T15:31:01;1.80;;;1.00;;
76447;SDS011;65284;51.040;13.722;2022-12-31T15:33:53;2.92;;;0.80;;
76447;SDS011;65284;51.040;13.722;2022-12-31T15:36:23;3.35;;;1.00;;
76447;SDS011;65284;51.040;13.722;2022-12-31T15:38:51;4.65;;;1.42;;
76447;SDS011;65284;51.040;13.722;2022-12-31T15:41:38;4.32;;;2.53;;
76447;SDS011;65284;51.040;13.722;2022-12-31T15:44:43;3.38;;;1.50;;
76447;SDS011;65284;51.040;13.722;2022-12-31T15:47:36;4.85;;;1.70;;
76447;SDS011;65284;51.040;13.722;2022-12-31T15:50:05;4.18;;;1.75;;
76447;SDS011;65284;51.040;13.722;2022-12-31T15:52:40;3.75;;;1.50;;
76447;SDS011;65284;51.040;13.722;2022-12-31T15:55:15;4.05;;;1.90;;
76447;SDS011;65284;51.040;13.722;2022-12-31T15:57:51;5.10;;;2.30;;
76447;SDS011;65284;51.040;13.722;2022-12-31T16:00:22;4.90;;;2.60;;
76447;SDS011;65284;51.040;13.722;2022-12-31T16:02:50;7.28;;;3.25;;
76447;SDS011;65284;51.040;13.722;2022-12-31T16:05:23;7.18;;;3.17;;
76447;SDS011;65284;51.040;13.722;2022-12-31T16:07:55;5.13;;;2.50;;
76447;SDS011;65284;51.040;13.722;2022-12-31T16:10:28;8.95;;;4.78;;
76447;SDS011;65284;51.040;13.722;2022-12-31T16:12:57;9.82;;;4.68;;
76447;SDS011;65284;51.040;13.722;2022-12-31T16:15:29;7.10;;;3.65;;
76447;SDS011;65284;51.040;13.722;2022-12-31T16:18:19;6.40;;;3.28;;
76447;SDS011;65284;51.040;13.722;2022-12-31T16:20:48;6.18;;;3.20;;
76447;SDS011;65284;51.040;13.722;2022-12-31T16:23:21;9.52;;;4.10;;
76447;SDS011;65284;51.040;13.722;2022-12-31T16:25:53;7.40;;;3.50;;
76447;SDS011;65284;51.040;13.722;2022-12-31T16:28:25;7.25;;;3.83;;
76447;SDS011;65284;51.040;13.722;2022-12-31T16:31:01;8.40;;;4.03;;
76447;SDS011;65284;51.040;13.722;2022-12-31T16:33:30;14.25;;;8.02;;
76447;SDS011;65284;51.040;13.722;2022-12-31T16:35:58;9.05;;;4.30;;
76447;SDS011;65284;51.040;13.722;2022-12-31T16:38:30;10.25;;;5.50;;
76447;SDS011;65284;51.040;13.722;2022-12-31T16:48:53;8.18;;;5.35;;
76447;SDS011;65284;51.040;13.722;2022-12-31T16:51:23;5.85;;;3.10;;
76447;SDS011;65284;51.040;13.722;2022-12-31T16:53:52;10.90;;;5.00;;
76447;SDS011;65284;51.040;13.722;2022-12-31T16:56:23;12.77;;;7.85;;
76447;SDS011;65284;51.040;13.722;2022-12-31T16:58:58;6.93;;;3.67;;
76447;SDS011;65284;51.040;13.722;2022-12-31T17:01:49;8.63;;;3.72;;
76447;SDS011;65284;51.040;13.722;2022-12-31T17:04:17;10.13;;;5.63;;
76447;SDS011;65284;51.040;13.722;2022-12-31T17:06:46;8.63;;;5.43;;
76447;SDS011;65284;51.040;13.722;2022-12-31T17:16:38;32.03;;;19.10;;
76447;SDS011;65284;51.040;13.722;2022-12-31T17:22:44;17.60;;;11.48;;
76447;SDS011;65284;51.040;13.722;2022-12-31T17:25:22;11.30;;;5.82;;
76447;SDS011;65284;51.040;13.722;2022-12-31T17:27:57;7.78;;;4.95;;
76447;SDS011;65284;51.040;13.722;2022-12-31T17:35:37;8.63;;;4.95;;
76447;SDS011;65284;51.040;13.722;2022-12-31T17:40:43;8.38;;;4.25;;
76447;SDS011;65284;51.040;13.722;2022-12-31T17:43:17;6.35;;;3.22;;
76447;SDS011;65284;51.040;13.722;2022-12-31T17:45:45;5.18;;;2.75;;
76447;SDS011;65284;51.040;13.722;2022-12-31T17:48:15;8.65;;;4.70;;
76447;SDS011;65284;51.040;13.722;2022-12-31T17:50:50;9.75;;;4.80;;
76447;SDS011;65284;51.040;13.722;2022-12-31T17:53:17;8.05;;;3.92;;
76447;SDS011;65284;51.040;13.722;2022-12-31T17:55:44;9.60;;;4.82;;
76447;SDS011;65284;51.040;13.722;2022-12-31T18:01:08;7.57;;;2.80;;
76447;SDS011;65284;51.040;13.722;2022-12-31T18:03:35;6.32;;;2.83;;
76447;SDS011;65284;51.040;13.722;2022-12-31T18:06:01;7.85;;;3.45;;
76447;SDS011;65284;51.040;13.722;2022-12-31T18:08:28;9.25;;;4.05;;
76447;SDS011;65284;51.040;13.722;2022-12-31T18:10:54;10.10;;;5.03;;
76447;SDS011;65284;51.040;13.722;2022-12-31T18:13:24;8.57;;;5.28;;
76447;SDS011;65284;51.040;13.722;2022-12-31T18:15:52;12.43;;;6.75;;
76447;SDS011;65284;51.040;13.722;2022-12-31T18:18:20;18.70;;;9.50;;
76447;SDS011;65284;51.040;13.722;2022-12-31T18:20:51;31.75;;;19.60;;
76447;SDS011;65284;51.040;13.722;2022-12-31T18:23:22;28.17;;;16.23;;
76447;SDS011;65284;51.040;13.722;2022-12-31T18:25:53;21.65;;;12.65;;
76447;SDS011;65284;51.040;13.722;2022-12-31T18:28:19;16.00;;;10.23;;
76447;SDS011;65284;51.040;13.722;2022-12-31T18:30:46;19.38;;;11.93;;
76447;SDS011;65284;51.040;13.722;2022-12-31T18:33:13;24.35;;;13.90;;
76447;SDS011;65284;51.040;13.722;2022-12-31T18:35:44;20.38;;;12.43;;
76447;SDS011;65284;51.040;13.722;2022-12-31T18:38:32;19.70;;;12.48;;
76447;SDS011;65284;51.040;13.722;2022-12-31T18:40:58;25.60;;;15.75;;
76447;SDS011;65284;51.040;13.722;2022-12-31T18:43:25;23.73;;;14.35;;
76447;SDS011;65284;51.040;13.722;2022-12-31T18:45:51;32.72;;;20.50;;
76447;SDS011;65284;51.040;13.722;2022-12-31T18:48:18;24.38;;;14.77;;
76447;SDS011;65284;51.040;13.722;2022-12-31T18:50:44;15.60;;;8.93;;
76447;SDS011;65284;51.040;13.722;2022-12-31T18:53:17;20.38;;;11.38;;
76447;SDS011;65284;51.040;13.722;2022-12-31T18:55:49;14.70;;;7.78;;
76447;SDS011;65284;51.040;13.722;2022-12-31T18:58:18;11.07;;;6.88;;
76447;SDS011;65284;51.040;13.722;2022-12-31T19:00:45;9.60;;;5.90;;
76447;SDS011;65284;51.040;13.722;2022-12-31T19:03:13;36.42;;;19.85;;
76447;SDS011;65284;51.040;13.722;2022-12-31T19:05:41;20.33;;;12.93;;
76447;SDS011;65284;51.040;13.722;2022-12-31T19:08:08;24.65;;;16.45;;
76447;SDS011;65284;51.040;13.722;2022-12-31T19:10:35;35.30;;;21.05;;